createdAt,value
2023-02-25T00:03:21.022Z,17.20
2023-02-25T00:07:21.881Z,14.00
2023-02-25T00:11:40.634Z,17.20
2023-02-25T00:15:50.154Z,15.90
2023-02-25T00:19:59.804Z,17.60
2023-02-25T00:24:16.305Z,14.50
2023-02-25T00:28:19.370Z,19.20
2023-02-25T00:32:27.787Z,15.60
2023-02-25T00:36:18.193Z,18.30
2023-02-25T00:40:10.392Z,15.80
2023-02-25T00:44:20.004Z,13.20
2023-02-25T00:48:28.343Z,12.50
2023-02-25T00:52:37.775Z,18.10
2023-02-25T00:56:16.008Z,16.90
2023-02-25T00:59:55.450Z,14.20
2023-02-25T01:04:04.916Z,20.20
2023-02-25T01:08:08.744Z,12.80
2023-02-25T01:12:00.814Z,13.80
2023-02-25T01:16:10.660Z,15.00
2023-02-25T01:20:10.822Z,12.50
2023-02-25T01:24:20.740Z,16.20
2023-02-25T01:28:30.254Z,14.20
2023-02-25T01:31:56.012Z,13.80
2023-02-25T01:35:56.535Z,13.40
2023-02-25T01:39:27.729Z,11.50
2023-02-25T01:43:22.592Z,12.90
2023-02-25T01:47:17.992Z,13.50
2023-02-25T01:51:25.677Z,13.70
2023-02-25T01:55:33.902Z,12.80
2023-02-25T01:59:34.378Z,13.70
2023-02-25T02:03:28.809Z,11.00
2023-02-25T02:07:38.268Z,11.70
2023-02-25T02:11:16.915Z,11.10
2023-02-25T02:15:19.915Z,12.50
2023-02-25T02:19:13.427Z,11.00
2023-02-25T02:23:34.798Z,10.80
2023-02-25T02:27:50.240Z,11.00
2023-02-25T02:32:00.181Z,11.30
2023-02-25T02:36:09.628Z,12.10
2023-02-25T02:40:19.889Z,11.70
2023-02-25T02:44:32.195Z,9.40
2023-02-25T02:48:41.660Z,11.70
2023-02-25T02:52:28.144Z,11.70
2023-02-25T02:56:37.596Z,10.20
2023-02-25T03:00:46.194Z,11.20
2023-02-25T03:05:00.039Z,11.60
2023-02-25T03:09:12.675Z,11.80
2023-02-25T03:13:20.882Z,10.30
2023-02-25T03:17:42.546Z,11.90
2023-02-25T03:21:44.582Z,12.50
2023-02-25T03:26:00.474Z,12.40
2023-02-25T03:30:08.523Z,13.10
2023-02-25T03:34:39.230Z,13.40
2023-02-25T03:38:47.039Z,11.30
2023-02-25T03:42:56.851Z,11.20
2023-02-25T03:46:31.634Z,11.80
2023-02-25T03:51:05.159Z,11.50
2023-02-25T03:55:06.939Z,11.20
2023-02-25T03:59:16.652Z,9.10
2023-02-25T04:03:20.006Z,12.60
2023-02-25T04:07:14.691Z,11.00
2023-02-25T04:11:24.183Z,14.50
2023-02-25T04:15:17.570Z,10.20
2023-02-25T04:19:06.879Z,9.40
2023-02-25T04:22:55.450Z,10.40
2023-02-25T04:26:56.808Z,9.80
2023-02-25T04:30:49.504Z,12.60
2023-02-25T04:34:41.601Z,11.00
2023-02-25T04:38:51.271Z,10.20
2023-02-25T04:42:42.363Z,11.50
2023-02-25T04:46:44.553Z,10.50
2023-02-25T04:50:43.875Z,10.40
2023-02-25T04:54:43.641Z,11.40
2023-02-25T04:58:49.368Z,11.00
2023-02-25T05:02:58.986Z,10.90
2023-02-25T05:07:08.445Z,10.90
2023-02-25T05:11:10.251Z,9.50
2023-02-25T05:15:04.651Z,10.40
2023-02-25T05:18:59.118Z,11.00
2023-02-25T05:23:02.335Z,11.00
2023-02-25T05:27:10.771Z,12.40
2023-02-25T05:31:01.112Z,11.40
2023-02-25T05:35:09.606Z,9.90
2023-02-25T05:39:12.854Z,11.30
2023-02-25T05:42:49.214Z,10.10
2023-02-25T05:46:54.779Z,8.60
2023-02-25T05:50:57.360Z,7.50
2023-02-25T05:54:51.074Z,9.70
2023-02-25T05:58:50.503Z,8.40
2023-02-25T06:03:02.157Z,10.10
2023-02-25T06:07:10.489Z,9.50
2023-02-25T06:11:19.850Z,9.10
2023-02-25T06:15:21.874Z,11.80
2023-02-25T06:19:31.307Z,9.80
2023-02-25T06:23:33.489Z,10.10
2023-02-25T06:27:32.943Z,11.50
2023-02-25T06:31:21.664Z,9.00
2023-02-25T06:35:23.360Z,10.70
2023-02-25T06:39:15.788Z,10.40
2023-02-25T06:43:16.298Z,43.90
2023-02-25T06:47:19.033Z,44.90
2023-02-25T06:51:21.154Z,25.70
2023-02-25T06:55:30.767Z,16.20
2023-02-25T06:59:25.531Z,9.10
2023-02-25T07:03:35.148Z,9.00
2023-02-25T07:06:49.619Z,8.60
2023-02-25T07:10:19.226Z,7.90
2023-02-25T07:14:21.337Z,9.70
2023-02-25T07:18:31.135Z,14.20
2023-02-25T07:22:40.906Z,29.00
2023-02-25T07:26:49.457Z,14.10
2023-02-25T07:30:04.400Z,10.40
2023-02-25T07:33:53.814Z,9.30
2023-02-25T07:38:03.391Z,9.30
2023-02-25T07:42:05.832Z,8.20
2023-02-25T07:46:15.430Z,6.50
2023-02-25T07:50:12.701Z,7.90
2023-02-25T07:54:24.070Z,8.70
2023-02-25T07:58:33.635Z,8.90
2023-02-25T08:02:35.961Z,8.30
2023-02-25T08:06:45.592Z,9.00
2023-02-25T08:10:43.707Z,10.90
2023-02-25T08:14:51.723Z,8.20
2023-02-25T08:19:03.991Z,10.40
2023-02-25T08:23:02.202Z,9.70
2023-02-25T08:27:11.900Z,9.50
2023-02-25T08:31:20.279Z,10.90
2023-02-25T08:35:23.691Z,13.30
2023-02-25T08:38:59.704Z,19.80
2023-02-25T08:43:09.421Z,15.50
2023-02-25T08:47:07.708Z,6.30
2023-02-25T08:50:57.337Z,9.60
2023-02-25T08:55:05.675Z,13.10
2023-02-25T08:59:15.498Z,9.00
2023-02-25T09:03:15.392Z,16.20
2023-02-25T09:07:02.074Z,20.60
2023-02-25T09:10:50.883Z,14.70
2023-02-25T09:14:39.083Z,11.10
2023-02-25T09:18:48.701Z,10.80
2023-02-25T09:22:58.418Z,7.60
2023-02-25T09:27:07.977Z,11.70
2023-02-25T09:30:39.852Z,8.90
2023-02-25T09:34:41.785Z,4.30
2023-02-25T09:38:51.538Z,0.70
2023-02-25T09:42:49.881Z,1.60
2023-02-25T09:46:51.939Z,2.60
2023-02-25T09:51:01.499Z,3.10
2023-02-25T09:55:09.226Z,3.20
2023-02-25T09:59:07.414Z,3.80
2023-02-25T10:02:37.352Z,2.00
2023-02-25T10:06:38.466Z,2.50
2023-02-25T10:11:12.269Z,1.80
2023-02-25T10:15:19.201Z,1.90
2023-02-25T10:19:17.361Z,2.70
2023-02-25T10:23:26.480Z,5.20
2023-02-25T10:27:38.754Z,3.50
2023-02-25T10:31:45.981Z,3.60
2023-02-25T10:35:57.467Z,4.20
2023-02-25T10:39:54.012Z,4.20
2023-02-25T10:44:03.385Z,3.00
2023-02-25T10:48:15.798Z,3.10
2023-02-25T10:52:23.473Z,3.00
2023-02-25T10:56:38.993Z,3.80
2023-02-25T11:00:46.692Z,2.80
2023-02-25T11:04:56.325Z,4.90
2023-02-25T11:09:04.349Z,3.10
2023-02-25T11:13:08.602Z,4.80
2023-02-25T11:17:06.588Z,2.50
2023-02-25T11:20:58.172Z,5.00
2023-02-25T11:25:03.435Z,3.40
2023-02-25T11:29:11.119Z,3.60
2023-02-25T11:33:20.938Z,2.60
2023-02-25T11:37:29.166Z,3.90
2023-02-25T11:41:44.841Z,4.00
2023-02-25T11:45:57.127Z,4.60
2023-02-25T11:49:55.413Z,4.30
2023-02-25T11:54:16.603Z,6.00
2023-02-25T11:58:50.321Z,4.30
2023-02-25T12:02:56.120Z,3.40
2023-02-25T12:07:13.278Z,5.10
2023-02-25T12:11:19.017Z,6.10
2023-02-25T12:15:21.066Z,4.40
2023-02-25T12:19:42.276Z,5.30
2023-02-25T12:23:42.388Z,4.50
2023-02-25T12:27:48.328Z,7.10
2023-02-25T12:32:00.756Z,5.80
2023-02-25T12:35:42.388Z,6.10
2023-02-25T12:39:54.895Z,4.70
2023-02-25T12:44:14.275Z,5.00
2023-02-25T12:48:24.728Z,5.30
2023-02-25T12:52:36.937Z,4.80
2023-02-25T12:56:16.419Z,4.50
2023-02-25T13:00:29.310Z,5.80
2023-02-25T13:04:44.206Z,6.70
2023-02-25T13:08:40.257Z,5.70
2023-02-25T13:13:01.720Z,4.50
2023-02-25T13:17:14.005Z,6.00
2023-02-25T13:21:21.806Z,5.20
2023-02-25T13:25:32.573Z,4.50
2023-02-25T13:29:44.877Z,3.80
2023-02-25T13:33:58.823Z,5.20
2023-02-25T13:42:18.176Z,3.80
2023-02-25T13:46:51.667Z,6.60
2023-02-25T13:50:46.772Z,4.20
2023-02-25T13:54:46.691Z,4.00
2023-02-25T13:58:39.935Z,7.30
2023-02-25T14:03:01.392Z,8.10
2023-02-25T14:07:42.442Z,6.10
2023-02-25T14:12:12.531Z,6.30
2023-02-25T14:16:00.504Z,4.80
2023-02-25T14:20:12.822Z,9.20
2023-02-25T14:24:25.277Z,8.10
2023-02-25T14:28:38.090Z,8.70
2023-02-25T14:32:51.879Z,9.30
2023-02-25T14:37:07.901Z,4.50
2023-02-25T14:40:47.165Z,5.30
2023-02-25T14:44:56.983Z,10.60
2023-02-25T14:48:49.137Z,4.80
2023-02-25T14:52:38.567Z,4.50
2023-02-25T14:56:36.095Z,4.60
2023-02-25T15:00:51.382Z,5.80
2023-02-25T15:05:11.457Z,7.50
2023-02-25T15:09:45.427Z,5.50
2023-02-25T15:13:53.111Z,3.10
2023-02-25T15:18:03.965Z,7.70
2023-02-25T15:22:20.800Z,7.30
2023-02-25T15:26:25.512Z,5.20
2023-02-25T15:30:20.655Z,5.20
2023-02-25T15:35:03.800Z,6.20
2023-02-25T15:39:25.107Z,6.70
2023-02-25T15:47:07.287Z,8.30
2023-02-25T15:51:06.560Z,9.20
2023-02-25T15:55:16.010Z,10.50
2023-02-25T16:13:36.042Z,9.10
2023-02-25T16:16:05.965Z,5.00
2023-02-25T16:18:45.272Z,4.70
2023-02-25T16:21:39.197Z,6.10
2023-02-25T16:24:12.276Z,5.70
2023-02-25T16:27:06.519Z,7.80
2023-02-25T16:29:59.172Z,7.10
2023-02-25T16:35:35.912Z,6.60
2023-02-25T16:38:26.555Z,4.80
2023-02-25T16:40:54.847Z,4.70
2023-02-25T16:43:28.505Z,5.50
2023-02-25T16:46:00.431Z,8.00
2023-02-25T16:48:39.341Z,9.50
2023-02-25T16:51:10.592Z,4.10
2023-02-25T16:53:45.463Z,11.20
2023-02-25T16:56:20.124Z,5.80
2023-02-25T16:58:58.688Z,4.50
2023-02-25T17:01:29.886Z,5.00
2023-02-25T17:04:23.109Z,6.90
2023-02-25T17:07:17.994Z,3.60
2023-02-25T17:09:49.281Z,6.70
2023-02-25T17:12:47.704Z,4.60
2023-02-25T17:15:29.200Z,4.10
2023-02-25T17:18:10.431Z,4.20
2023-02-25T17:20:39.879Z,4.10
2023-02-25T17:23:11.353Z,9.00
2023-02-25T17:25:43.164Z,7.50
2023-02-25T17:28:22.988Z,7.80
2023-02-25T17:30:52.281Z,5.10
2023-02-25T17:33:26.328Z,5.20
2023-02-25T17:36:26.205Z,5.10
2023-02-25T17:38:58.561Z,4.70
2023-02-25T17:43:54.991Z,6.40
2023-02-25T17:46:27.619Z,3.00
2023-02-25T17:48:59.683Z,4.10
2023-02-25T17:51:36.730Z,3.70
2023-02-25T17:54:13.784Z,4.80
2023-02-25T17:56:42.532Z,5.20
2023-02-25T17:59:13.796Z,7.00
2023-02-25T18:02:03.210Z,4.80
2023-02-25T18:04:40.232Z,5.70
2023-02-25T18:07:32.712Z,5.80
2023-02-25T18:12:33.051Z,7.70
2023-02-25T18:15:15.781Z,5.90
2023-02-25T18:17:58.561Z,4.50
2023-02-25T18:20:31.304Z,7.00
2023-02-25T18:23:15.795Z,4.40
2023-02-25T18:25:46.796Z,5.40
2023-02-25T18:28:18.146Z,3.90
2023-02-25T18:30:46.232Z,4.50
2023-02-25T18:33:15.687Z,5.20
2023-02-25T18:35:46.537Z,1.90
2023-02-25T18:38:21.258Z,4.10
2023-02-25T18:40:50.885Z,4.80
2023-02-25T18:43:25.500Z,5.60
2023-02-25T18:45:53.966Z,7.50
2023-02-25T18:48:22.048Z,4.20
2023-02-25T18:50:50.324Z,3.50
2023-02-25T18:53:22.813Z,7.10
2023-02-25T18:58:24.903Z,6.10
2023-02-25T19:00:56.764Z,7.20
2023-02-25T19:03:29.717Z,6.40
2023-02-25T19:05:58.189Z,6.70
2023-02-25T19:08:26.540Z,5.20
2023-02-25T19:10:55.050Z,5.50
2023-02-25T19:13:39.012Z,5.40
2023-02-25T19:16:08.121Z,4.30
2023-02-25T19:18:37.730Z,4.30
2023-02-25T19:21:11.933Z,3.10
2023-02-25T19:23:40.638Z,4.60
2023-02-25T19:26:08.997Z,4.10
2023-02-25T19:28:37.448Z,5.00
2023-02-25T19:31:07.265Z,8.60
2023-02-25T19:33:36.525Z,5.80
2023-02-25T19:36:04.932Z,4.20
2023-02-25T19:38:33.826Z,5.40
2023-02-25T19:41:04.194Z,4.70
2023-02-25T19:43:33.312Z,4.70
2023-02-25T19:46:02.622Z,2.90
2023-02-25T19:48:30.775Z,6.80
2023-02-25T19:50:58.926Z,4.50
2023-02-25T19:53:27.474Z,6.00
2023-02-25T19:55:57.152Z,10.20
2023-02-25T19:58:25.466Z,3.70
2023-02-25T20:00:53.792Z,5.80
2023-02-25T20:03:23.082Z,4.60
2023-02-25T20:05:52.400Z,3.50
2023-02-25T20:08:20.946Z,3.70
2023-02-25T20:10:49.057Z,4.10
2023-02-25T20:13:17.938Z,5.00
2023-02-25T20:15:46.703Z,3.70
2023-02-25T20:18:15.962Z,4.10
2023-02-25T20:20:44.387Z,5.40
2023-02-25T20:23:12.677Z,4.20
2023-02-25T20:25:40.764Z,3.80
2023-02-25T20:28:09.076Z,2.90
2023-02-25T20:30:38.601Z,5.00
2023-02-25T20:33:06.932Z,6.50
2023-02-25T20:35:35.456Z,4.40
2023-02-25T20:38:24.278Z,4.30
2023-02-25T20:40:53.100Z,10.10
2023-02-25T20:43:21.899Z,6.70
2023-02-25T20:45:50.342Z,5.70
2023-02-25T20:48:28.063Z,7.80
2023-02-25T20:50:57.759Z,6.90
2023-02-25T20:53:26.250Z,7.00
2023-02-25T20:55:57.285Z,3.40
2023-02-25T20:58:25.591Z,6.00
2023-02-25T21:00:53.711Z,5.40
2023-02-25T21:03:22.020Z,5.90
2023-02-25T21:05:50.227Z,1.70
2023-02-25T21:08:18.313Z,4.60
2023-02-25T21:10:46.765Z,5.10
2023-02-25T21:13:15.881Z,6.60
2023-02-25T21:15:44.295Z,5.30
2023-02-25T21:18:12.564Z,8.20
2023-02-25T21:20:40.994Z,2.80
2023-02-25T21:23:11.310Z,6.40
2023-02-25T21:25:39.652Z,5.50
2023-02-25T21:28:08.119Z,3.50
2023-02-25T21:30:36.209Z,4.40
2023-02-25T21:33:04.349Z,3.50
2023-02-25T21:35:32.588Z,5.30
2023-02-25T21:38:00.809Z,2.50
2023-02-25T21:40:29.133Z,3.70
2023-02-25T21:42:58.146Z,4.10
2023-02-25T21:45:26.271Z,3.00
2023-02-25T21:47:54.679Z,4.60
2023-02-25T21:50:22.911Z,2.20
2023-02-25T21:52:51.326Z,2.30
2023-02-25T21:55:19.595Z,1.90
2023-02-25T21:57:47.770Z,4.50
2023-02-25T22:00:16.119Z,2.80
2023-02-25T22:02:44.195Z,2.10
2023-02-25T22:05:12.337Z,2.10
2023-02-25T22:07:40.371Z,3.90
2023-02-25T22:10:09.127Z,5.70
2023-02-25T22:12:37.559Z,2.80
2023-02-25T22:15:06.036Z,3.30
2023-02-25T22:17:34.416Z,2.90
2023-02-25T22:20:07.153Z,4.40
2023-02-25T22:22:37.757Z,5.10
2023-02-25T22:25:06.740Z,4.80
2023-02-25T22:27:34.844Z,3.90
2023-02-25T22:30:03.562Z,2.80
2023-02-25T22:32:35.540Z,2.80
2023-02-25T22:35:04.574Z,4.50
2023-02-25T22:37:32.633Z,2.40
2023-02-25T22:40:01.060Z,3.60
2023-02-25T22:42:29.140Z,3.30
2023-02-25T22:44:57.275Z,4.50
2023-02-25T22:47:26.017Z,2.70
2023-02-25T22:49:54.066Z,4.10
2023-02-25T22:52:22.117Z,2.20
2023-02-25T22:54:50.239Z,4.10
2023-02-25T22:57:18.284Z,5.30
2023-02-25T22:59:48.488Z,3.10
2023-02-25T23:02:16.704Z,8.00
2023-02-25T23:04:44.994Z,6.30
2023-02-25T23:07:13.023Z,2.60
2023-02-25T23:09:41.160Z,1.60
2023-02-25T23:12:09.516Z,4.30
2023-02-25T23:14:37.768Z,1.90
2023-02-25T23:17:06.532Z,5.50
2023-02-25T23:19:34.606Z,1.60
2023-02-25T23:22:02.851Z,3.80
2023-02-25T23:24:31.183Z,2.00
2023-02-25T23:26:59.483Z,4.00
2023-02-25T23:29:27.731Z,4.80
2023-02-25T23:31:56.252Z,3.20
2023-02-25T23:34:24.798Z,2.50
2023-02-25T23:36:56.683Z,2.50
2023-02-25T23:39:25.485Z,2.40
2023-02-25T23:41:53.625Z,1.90
2023-02-25T23:44:21.813Z,3.50
2023-02-25T23:46:50.217Z,2.20
2023-02-25T23:49:18.286Z,2.40
2023-02-25T23:51:47.979Z,3.10
2023-02-25T23:54:19.280Z,2.80
2023-02-25T23:56:48.777Z,3.30
2023-02-25T23:59:17.600Z,1.20
